Time;durP1;ratioP1;P1;durP2;ratioP2;P2;SDS_P1;SDS_P2;PMS_P1;PMS_P2;Temp;Humidity;BMP_temperature;BMP_pressure;BME280_temperature;BME280_humidity;BME280_pressure;Samples;Min_cycle;Max_cycle;Signal;HPM_P1;HPM_P2
2023/10/05 00:01:02;;;;;;;0.80;0.80;;;;;;;;;;4971017;28;20591;-64
2023/10/05 00:03:28;;;;;;;0.70;0.70;;;;;;;;;;4974946;28;20084;-64
2023/10/05 00:05:56;;;;;;;0.80;0.80;;;;;;;;;;4968433;28;20035;-65
2023/10/05 00:08:22;;;;;;;0.70;0.70;;;;;;;;;;4970425;28;20488;-63
2023/10/05 00:10:48;;;;;;;0.70;0.70;;;;;;;;;;4975507;28;20072;-64
2023/10/05 00:13:13;;;;;;;0.70;0.70;;;;;;;;;;4973620;28;20449;-64
2023/10/05 00:15:38;;;;;;;0.80;0.80;;;;;;;;;;4972408;28;20369;-64
2023/10/05 00:18:07;;;;;;;0.80;0.80;;;;;;;;;;4970837;28;20465;-63
2023/10/05 00:20:38;;;;;;;0.80;0.80;;;;;;;;;;4977157;28;20049;-63
2023/10/05 00:23:08;;;;;;;0.70;0.70;;;;;;;;;;4965791;28;20118;-64
2023/10/05 00:25:33;;;;;;;0.80;0.80;;;;;;;;;;4966787;28;20137;-64
2023/10/05 00:28:03;;;;;;;0.80;0.80;;;;;;;;;;4969460;28;20041;-64
2023/10/05 00:30:29;;;;;;;0.80;0.80;;;;;;;;;;4972214;28;20026;-64
2023/10/05 00:33:00;;;;;;;0.75;0.75;;;;;;;;;;4971102;28;20038;-63
2023/10/05 00:35:32;;;;;;;0.80;0.80;;;;;;;;;;4968942;28;20794;-64
2023/10/05 00:38:04;;;;;;;0.80;0.80;;;;;;;;;;4985946;28;20049;-64
2023/10/05 00:40:37;;;;;;;0.80;0.80;;;;;;;;;;4967463;28;20724;-64
2023/10/05 00:43:07;;;;;;;0.90;0.90;;;;;;;;;;4962012;28;20035;-64
2023/10/05 00:45:33;;;;;;;0.80;0.80;;;;;;;;;;4973391;28;20019;-63
2023/10/05 00:48:09;;;;;;;0.70;0.70;;;;;;;;;;4979964;28;20101;-64
2023/10/05 00:50:36;;;;;;;0.80;0.80;;;;;;;;;;4971159;28;20026;-63
2023/10/05 00:53:01;;;;;;;0.70;0.70;;;;;;;;;;4979572;28;20034;-63
2023/10/05 00:55:27;;;;;;;0.70;0.70;;;;;;;;;;4973061;28;20433;-63
2023/10/05 00:57:54;;;;;;;0.73;0.73;;;;;;;;;;4965123;28;20085;-63
2023/10/05 01:00:28;;;;;;;0.70;0.70;;;;;;;;;;4972071;28;20031;-64
2023/10/05 01:05:49;;;;;;;0.80;0.80;;;;;;;;;;4987537;28;20092;-62
2023/10/05 01:08:16;;;;;;;0.80;0.80;;;;;;;;;;4991268;28;20042;-63
2023/10/05 01:10:47;;;;;;;0.80;0.80;;;;;;;;;;4995202;28;20065;-62
2023/10/05 01:13:31;;;;;;;0.80;0.80;;;;;;;;;;5009643;28;20027;-61
2023/10/05 01:15:57;;;;;;;0.80;0.80;;;;;;;;;;4991279;28;20072;-61
2023/10/05 01:18:25;;;;;;;0.80;0.80;;;;;;;;;;4999190;28;20088;-61
2023/10/05 01:20:51;;;;;;;0.80;0.80;;;;;;;;;;4993071;28;20031;-62
2023/10/05 01:23:16;;;;;;;0.80;0.80;;;;;;;;;;4990523;28;20054;-62
2023/10/05 01:25:42;;;;;;;0.70;0.70;;;;;;;;;;4993746;28;20083;-62
2023/10/05 01:28:07;;;;;;;0.80;0.80;;;;;;;;;;4994935;28;20088;-59
2023/10/05 01:30:37;;;;;;;0.73;0.73;;;;;;;;;;4993348;28;20042;-60
2023/10/05 01:33:03;;;;;;;0.80;0.80;;;;;;;;;;4994563;28;20061;-62
2023/10/05 01:35:29;;;;;;;0.70;0.70;;;;;;;;;;4995185;28;20463;-61
2023/10/05 01:37:54;;;;;;;0.80;0.80;;;;;;;;;;4989481;28;20035;-60
2023/10/05 01:42:47;;;;;;;0.80;0.80;;;;;;;;;;4979688;28;20503;-60
2023/10/05 01:45:19;;;;;;;0.80;0.80;;;;;;;;;;4978613;28;20041;-60
2023/10/05 01:47:45;;;;;;;0.80;0.80;;;;;;;;;;4995446;28;20757;-61
2023/10/05 01:50:18;;;;;;;0.70;0.70;;;;;;;;;;4974439;28;20145;-61
2023/10/05 01:52:45;;;;;;;0.70;0.70;;;;;;;;;;4995346;28;20030;-61
2023/10/05 01:55:12;;;;;;;0.80;0.80;;;;;;;;;;4982634;28;20050;-61
2023/10/05 01:57:37;;;;;;;0.70;0.70;;;;;;;;;;4982680;28;20124;-62
2023/10/05 02:00:13;;;;;;;0.70;0.70;;;;;;;;;;4970427;28;20058;-62
2023/10/05 02:02:39;;;;;;;0.70;0.70;;;;;;;;;;4974480;28;20042;-60
2023/10/05 02:05:05;;;;;;;0.70;0.70;;;;;;;;;;4976719;28;20718;-61
2023/10/05 02:07:31;;;;;;;0.73;0.73;;;;;;;;;;4983508;28;20033;-61
2023/10/05 02:09:56;;;;;;;0.80;0.80;;;;;;;;;;4974008;28;20043;-63
2023/10/05 02:12:22;;;;;;;0.80;0.80;;;;;;;;;;4986283;28;20143;-62
2023/10/05 02:14:47;;;;;;;0.75;0.75;;;;;;;;;;4992717;28;20053;-62
2023/10/05 02:17:13;;;;;;;0.80;0.80;;;;;;;;;;4962741;28;20034;-61
2023/10/05 02:19:41;;;;;;;;;;;;;;;;;;4995570;28;20399;-62
2023/10/05 02:22:10;;;;;;;0.80;0.80;;;;;;;;;;4975430;28;20498;-62
2023/10/05 02:24:36;;;;;;;0.70;0.70;;;;;;;;;;4982205;28;20548;-61
2023/10/05 02:29:28;;;;;;;0.80;0.80;;;;;;;;;;4967500;28;20031;-60
2023/10/05 02:37:19;;;;;;;0.80;0.80;;;;;;;;;;4994919;28;20405;-61
2023/10/05 02:39:46;;;;;;;0.70;0.70;;;;;;;;;;4958044;28;20052;-61
2023/10/05 02:42:14;;;;;;;0.80;0.80;;;;;;;;;;4976687;28;20027;-61
2023/10/05 02:44:43;;;;;;;0.70;0.70;;;;;;;;;;4970345;28;20066;-61
2023/10/05 02:47:10;;;;;;;0.80;0.80;;;;;;;;;;4991178;28;20121;-62
2023/10/05 02:49:40;;;;;;;0.80;0.80;;;;;;;;;;4992886;28;20030;-62
2023/10/05 02:52:06;;;;;;;0.80;0.80;;;;;;;;;;4960438;28;20045;-60
2023/10/05 02:54:31;;;;;;;0.70;0.70;;;;;;;;;;4991909;28;20603;-60
2023/10/05 02:56:56;;;;;;;0.70;0.70;;;;;;;;;;4976101;28;20041;-62
2023/10/05 02:59:26;;;;;;;0.70;0.70;;;;;;;;;;4979555;28;20038;-62
2023/10/05 03:01:53;;;;;;;0.80;0.80;;;;;;;;;;4967923;28;20026;-62
2023/10/05 03:04:21;;;;;;;;;;;;;;;;;;4976415;28;20404;-60
2023/10/05 03:06:48;;;;;;;0.90;0.90;;;;;;;;;;4976816;28;19953;-60
2023/10/05 03:09:13;;;;;;;0.70;0.70;;;;;;;;;;4974763;28;20473;-60
2023/10/05 03:11:40;;;;;;;0.77;0.77;;;;;;;;;;4991325;28;20126;-64
2023/10/05 03:14:10;;;;;;;0.80;0.80;;;;;;;;;;4960613;28;20475;-61
2023/10/05 03:16:43;;;;;;;0.80;0.80;;;;;;;;;;4971803;28;20038;-60
2023/10/05 03:19:20;;;;;;;0.80;0.80;;;;;;;;;;4975693;28;20750;-62
2023/10/05 03:22:04;;;;;;;0.80;0.80;;;;;;;;;;4985897;28;20388;-61
2023/10/05 03:24:30;;;;;;;0.80;0.80;;;;;;;;;;4994788;28;20133;-60
2023/10/05 03:26:55;;;;;;;0.70;0.70;;;;;;;;;;4973404;28;20444;-61
2023/10/05 03:29:24;;;;;;;0.75;0.75;;;;;;;;;;4973832;28;20576;-62
2023/10/05 03:34:55;;;;;;;0.70;0.70;;;;;;;;;;4970507;28;20046;-61
2023/10/05 03:37:21;;;;;;;0.70;0.70;;;;;;;;;;4995208;28;20030;-61
2023/10/05 03:42:15;;;;;;;0.75;0.75;;;;;;;;;;4974508;28;20033;-61
2023/10/05 03:44:40;;;;;;;0.70;0.70;;;;;;;;;;4979206;28;20031;-61
2023/10/05 03:47:06;;;;;;;0.70;0.70;;;;;;;;;;4968914;28;20110;-60
2023/10/05 03:49:33;;;;;;;0.70;0.70;;;;;;;;;;4992499;28;20038;-61
2023/10/05 03:51:58;;;;;;;0.70;0.70;;;;;;;;;;4971208;28;20543;-60
2023/10/05 03:54:24;;;;;;;0.70;0.70;;;;;;;;;;4985716;28;20034;-61
2023/10/05 03:56:50;;;;;;;0.70;0.70;;;;;;;;;;4973732;28;20053;-62
2023/10/05 03:59:16;;;;;;;0.80;0.80;;;;;;;;;;4989934;28;20043;-65
2023/10/05 04:01:42;;;;;;;0.70;0.70;;;;;;;;;;4970637;28;20031;-61
2023/10/05 04:04:08;;;;;;;0.70;0.70;;;;;;;;;;4975941;28;20027;-61
2023/10/05 04:06:34;;;;;;;0.70;0.70;;;;;;;;;;4980298;28;20026;-61
2023/10/05 04:08:59;;;;;;;0.70;0.70;;;;;;;;;;4971077;28;20034;-61
2023/10/05 04:11:26;;;;;;;0.60;0.60;;;;;;;;;;4990838;28;20424;-60
2023/10/05 04:13:55;;;;;;;0.70;0.70;;;;;;;;;;4995344;28;20118;-62
2023/10/05 04:16:22;;;;;;;0.70;0.70;;;;;;;;;;4985175;28;20524;-60
2023/10/05 04:18:50;;;;;;;0.70;0.70;;;;;;;;;;4988218;28;20026;-61
2023/10/05 04:21:15;;;;;;;0.70;0.70;;;;;;;;;;4973424;28;20039;-61
2023/10/05 04:23:45;;;;;;;0.70;0.70;;;;;;;;;;4974325;28;20495;-61
2023/10/05 04:26:10;;;;;;;0.70;0.70;;;;;;;;;;4969328;28;20069;-61
2023/10/05 04:28:40;;;;;;;0.70;0.70;;;;;;;;;;4978935;28;20054;-62
2023/10/05 04:31:11;;;;;;;0.70;0.70;;;;;;;;;;4970000;28;20507;-60
2023/10/05 04:33:39;;;;;;;0.70;0.70;;;;;;;;;;4973879;28;20038;-62
2023/10/05 04:36:05;;;;;;;;;;;;;;;;;;4974923;28;20110;-61
2023/10/05 04:38:30;;;;;;;0.70;0.70;;;;;;;;;;4972315;28;20001;-61
2023/10/05 04:40:56;;;;;;;0.73;0.73;;;;;;;;;;4982901;28;20604;-63
2023/10/05 04:43:22;;;;;;;0.70;0.70;;;;;;;;;;4974851;28;20420;-62
2023/10/05 04:45:47;;;;;;;0.70;0.70;;;;;;;;;;4981023;28;20042;-62
2023/10/05 04:48:12;;;;;;;0.60;0.60;;;;;;;;;;4978580;28;20041;-60
2023/10/05 04:50:41;;;;;;;0.70;0.70;;;;;;;;;;4978232;28;20027;-63
2023/10/05 04:53:09;;;;;;;0.70;0.70;;;;;;;;;;4978811;28;20031;-61
2023/10/05 04:55:42;;;;;;;0.70;0.70;;;;;;;;;;4974265;28;20026;-60
2023/10/05 04:58:42;;;;;;;0.70;0.70;;;;;;;;;;4983138;28;20046;-62
2023/10/05 05:01:28;;;;;;;0.70;0.70;;;;;;;;;;4976156;28;20069;-63
2023/10/05 05:04:12;;;;;;;0.70;0.70;;;;;;;;;;4972439;28;20145;-61
2023/10/05 05:06:41;;;;;;;0.70;0.70;;;;;;;;;;4973404;28;20045;-61
2023/10/05 05:09:11;;;;;;;0.70;0.70;;;;;;;;;;4993455;28;20126;-63
2023/10/05 05:11:36;;;;;;;0.70;0.70;;;;;;;;;;4991741;28;20042;-62
2023/10/05 05:14:03;;;;;;;0.70;0.70;;;;;;;;;;4978534;28;20037;-61
2023/10/05 05:16:28;;;;;;;0.60;0.60;;;;;;;;;;4980312;28;20070;-63
2023/10/05 05:18:55;;;;;;;0.80;0.80;;;;;;;;;;4991092;28;20069;-60
2023/10/05 05:21:20;;;;;;;0.70;0.70;;;;;;;;;;4985196;28;20066;-61
2023/10/05 05:23:47;;;;;;;0.70;0.70;;;;;;;;;;4976138;28;20629;-61
2023/10/05 05:26:12;;;;;;;0.70;0.70;;;;;;;;;;4981864;28;20113;-61
2023/10/05 05:28:38;;;;;;;0.70;0.70;;;;;;;;;;4984181;28;20117;-61
2023/10/05 05:31:16;;;;;;;0.70;0.70;;;;;;;;;;4972383;28;20127;-61
2023/10/05 05:33:43;;;;;;;0.70;0.70;;;;;;;;;;4974289;28;20043;-63
2023/10/05 05:36:11;;;;;;;0.70;0.70;;;;;;;;;;4979321;28;20030;-63
2023/10/05 05:38:38;;;;;;;0.60;0.60;;;;;;;;;;4973843;28;20031;-61
2023/10/05 05:41:09;;;;;;;0.70;0.70;;;;;;;;;;4975449;28;20033;-60
2023/10/05 05:43:35;;;;;;;0.70;0.70;;;;;;;;;;4975771;28;20034;-61
2023/10/05 05:46:01;;;;;;;0.60;0.60;;;;;;;;;;4979265;28;20026;-61
2023/10/05 05:48:26;;;;;;;0.70;0.70;;;;;;;;;;4991194;28;20038;-63
2023/10/05 05:50:53;;;;;;;0.70;0.70;;;;;;;;;;4982271;28;20034;-62
2023/10/05 05:53:18;;;;;;;0.70;0.70;;;;;;;;;;5000903;28;20156;-60
2023/10/05 05:55:52;;;;;;;0.63;0.63;;;;;;;;;;4981399;28;20027;-61
2023/10/05 05:58:18;;;;;;;0.70;0.70;;;;;;;;;;4981303;28;20066;-60
2023/10/05 06:00:46;;;;;;;0.70;0.70;;;;;;;;;;4974522;28;20137;-60
2023/10/05 06:03:11;;;;;;;0.68;0.68;;;;;;;;;;4974374;28;20546;-61
2023/10/05 06:05:36;;;;;;;0.63;0.63;;;;;;;;;;4979292;28;20042;-60
2023/10/05 06:08:03;;;;;;;0.70;0.70;;;;;;;;;;4973953;28;20026;-59
2023/10/05 06:10:30;;;;;;;0.70;0.70;;;;;;;;;;4980665;28;20046;-61
2023/10/05 06:12:58;;;;;;;;;;;;;;;;;;4979360;28;20074;-62
2023/10/05 06:15:23;;;;;;;0.60;0.60;;;;;;;;;;4976182;28;19917;-60
2023/10/05 06:17:48;;;;;;;0.70;0.70;;;;;;;;;;4977628;28;20034;-60
2023/10/05 06:20:14;;;;;;;0.70;0.70;;;;;;;;;;4978174;28;20022;-61
2023/10/05 06:22:41;;;;;;;0.60;0.60;;;;;;;;;;4976079;28;20035;-62
2023/10/05 06:25:08;;;;;;;0.70;0.70;;;;;;;;;;4977990;28;20034;-62
2023/10/05 06:27:36;;;;;;;0.60;0.60;;;;;;;;;;4971263;28;20026;-62
2023/10/05 06:30:05;;;;;;;0.60;0.60;;;;;;;;;;4974933;28;20051;-65
2023/10/05 06:32:31;;;;;;;0.70;0.70;;;;;;;;;;4970395;28;20117;-64
2023/10/05 06:34:57;;;;;;;0.70;0.70;;;;;;;;;;4970689;28;20137;-63
2023/10/05 06:37:25;;;;;;;0.70;0.70;;;;;;;;;;4995497;28;20121;-61
2023/10/05 06:39:53;;;;;;;0.60;0.60;;;;;;;;;;4977288;28;20034;-61
2023/10/05 06:42:18;;;;;;;0.65;0.65;;;;;;;;;;4974277;28;20038;-65
2023/10/05 06:44:44;;;;;;;0.60;0.60;;;;;;;;;;4976550;28;20034;-61
2023/10/05 06:47:18;;;;;;;0.60;0.60;;;;;;;;;;4971213;28;20038;-62
2023/10/05 06:49:44;;;;;;;0.60;0.60;;;;;;;;;;4986728;28;20030;-61
2023/10/05 06:52:09;;;;;;;0.70;0.70;;;;;;;;;;4976801;28;21137;-62
2023/10/05 06:54:34;;;;;;;0.60;0.60;;;;;;;;;;4983917;28;20396;-62
2023/10/05 06:56:59;;;;;;;0.63;0.63;;;;;;;;;;4978077;28;20402;-60
2023/10/05 06:59:25;;;;;;;0.50;0.50;;;;;;;;;;4977733;28;20034;-61
2023/10/05 07:01:52;;;;;;;0.60;0.60;;;;;;;;;;4991642;28;20034;-61
2023/10/05 07:04:24;;;;;;;0.60;0.60;;;;;;;;;;4972979;28;20105;-63
2023/10/05 07:06:50;;;;;;;0.60;0.60;;;;;;;;;;4983949;28;20088;-61
2023/10/05 07:09:15;;;;;;;0.60;0.60;;;;;;;;;;4973482;28;20035;-61
2023/10/05 07:11:41;;;;;;;0.60;0.60;;;;;;;;;;4989017;28;20563;-61
2023/10/05 07:14:07;;;;;;;0.50;0.50;;;;;;;;;;4977282;28;20191;-62
2023/10/05 07:16:32;;;;;;;0.60;0.60;;;;;;;;;;4975981;28;20026;-60
2023/10/05 07:18:58;;;;;;;0.50;0.50;;;;;;;;;;4978004;28;20042;-61
2023/10/05 07:21:23;;;;;;;0.50;0.50;;;;;;;;;;4974452;28;20023;-62
2023/10/05 07:23:49;;;;;;;0.60;0.60;;;;;;;;;;4974424;28;20030;-62
2023/10/05 07:26:14;;;;;;;0.60;0.60;;;;;;;;;;4978859;28;20109;-62
2023/10/05 07:28:41;;;;;;;0.50;0.50;;;;;;;;;;4977818;28;20034;-62
2023/10/05 07:31:06;;;;;;;0.60;0.60;;;;;;;;;;4979119;28;20031;-61
2023/10/05 07:33:35;;;;;;;0.50;0.50;;;;;;;;;;4975049;28;20030;-61
2023/10/05 07:36:02;;;;;;;0.50;0.50;;;;;;;;;;4991603;28;20182;-62
2023/10/05 07:38:28;;;;;;;0.50;0.50;;;;;;;;;;4972496;28;20408;-62
2023/10/05 07:40:54;;;;;;;0.40;0.40;;;;;;;;;;4972927;28;20045;-61
2023/10/05 07:43:19;;;;;;;0.50;0.50;;;;;;;;;;4984971;28;20065;-62
2023/10/05 07:45:45;;;;;;;0.50;0.50;;;;;;;;;;4976669;28;20118;-61
2023/10/05 07:48:11;;;;;;;0.50;0.50;;;;;;;;;;4991989;28;20030;-60
2023/10/05 07:50:37;;;;;;;0.50;0.50;;;;;;;;;;4972462;28;20038;-61
2023/10/05 07:53:02;;;;;;;0.45;0.45;;;;;;;;;;4973783;28;20388;-62
2023/10/05 07:55:28;;;;;;;0.40;0.40;;;;;;;;;;4972572;28;20753;-65
2023/10/05 07:57:53;;;;;;;0.50;0.50;;;;;;;;;;4969911;28;20034;-61
2023/10/05 08:00:20;;;;;;;0.50;0.50;;;;;;;;;;4979904;28;20031;-62
2023/10/05 08:02:45;;;;;;;0.50;0.50;;;;;;;;;;4983084;28;20034;-61
2023/10/05 08:05:15;;;;;;;0.43;0.43;;;;;;;;;;4981307;28;20044;-62
2023/10/05 08:07:40;;;;;;;0.40;0.40;;;;;;;;;;4978286;28;20492;-62
2023/10/05 08:10:06;;;;;;;0.40;0.40;;;;;;;;;;4975939;28;20100;-62
2023/10/05 08:12:31;;;;;;;0.40;0.40;;;;;;;;;;4973764;28;20041;-62
2023/10/05 08:14:57;;;;;;;0.40;0.40;;;;;;;;;;4973458;28;20118;-63
2023/10/05 08:17:22;;;;;;;0.47;0.47;;;;;;;;;;4974468;28;20030;-63
2023/10/05 08:19:47;;;;;;;0.40;0.40;;;;;;;;;;4975248;28;20049;-60
2023/10/05 08:22:16;;;;;;;0.40;0.40;;;;;;;;;;4967689;28;20035;-62
2023/10/05 08:24:42;;;;;;;0.40;0.40;;;;;;;;;;4964790;28;20035;-61
2023/10/05 08:27:11;;;;;;;0.35;0.35;;;;;;;;;;4983695;28;20035;-61
2023/10/05 08:29:39;;;;;;;0.40;0.40;;;;;;;;;;4971641;28;20038;-61
2023/10/05 08:32:06;;;;;;;0.30;0.30;;;;;;;;;;4975448;28;20100;-62
2023/10/05 08:34:32;;;;;;;0.40;0.40;;;;;;;;;;4979951;28;20039;-61
2023/10/05 08:36:57;;;;;;;0.30;0.30;;;;;;;;;;4982220;28;20548;-60
2023/10/05 08:39:25;;;;;;;0.40;0.40;;;;;;;;;;4973852;28;20085;-61
2023/10/05 08:41:54;;;;;;;0.40;0.40;;;;;;;;;;4977148;28;20031;-61
2023/10/05 08:44:30;;;;;;;0.30;0.30;;;;;;;;;;4974627;28;20031;-60
2023/10/05 08:46:57;;;;;;;0.30;0.30;;;;;;;;;;4993173;28;20042;-60
2023/10/05 08:49:23;;;;;;;0.40;0.40;;;;;;;;;;4978379;28;20393;-65
2023/10/05 08:51:49;;;;;;;0.40;0.40;;;;;;;;;;4960476;28;20040;-63
2023/10/05 08:54:14;;;;;;;0.30;0.30;;;;;;;;;;4973136;28;20035;-63
2023/10/05 08:56:40;;;;;;;0.30;0.30;;;;;;;;;;4975926;28;20089;-61
2023/10/05 08:59:07;;;;;;;0.30;0.30;;;;;;;;;;4974801;28;20552;-60
2023/10/05 09:01:35;;;;;;;0.30;0.30;;;;;;;;;;4972109;28;20821;-62
2023/10/05 09:04:11;;;;;;;0.30;0.30;;;;;;;;;;4966382;28;20110;-60
2023/10/05 09:06:55;;;;;;;0.30;0.30;;;;;;;;;;4975119;28;20057;-61
2023/10/05 09:09:51;;;;;;;0.30;0.30;;;;;;;;;;4963797;28;20151;-62
2023/10/05 09:12:17;;;;;;;;;;;;;;;;;;4967130;28;20047;-62
2023/10/05 09:14:42;;;;;;;0.30;0.30;;;;;;;;;;4967798;28;19948;-60
2023/10/05 09:17:08;;;;;;;0.30;0.30;;;;;;;;;;4970555;28;20034;-62
2023/10/05 09:19:34;;;;;;;0.30;0.30;;;;;;;;;;4970399;28;20030;-62
2023/10/05 09:24:25;;;;;;;0.30;0.30;;;;;;;;;;4973143;28;20080;-62
2023/10/05 09:26:51;;;;;;;0.30;0.30;;;;;;;;;;4988268;28;20031;-64
2023/10/05 09:29:20;;;;;;;0.30;0.30;;;;;;;;;;4969404;28;20047;-62
2023/10/05 09:31:50;;;;;;;0.25;0.25;;;;;;;;;;4977747;28;20326;-61
2023/10/05 09:34:17;;;;;;;0.30;0.30;;;;;;;;;;4981001;28;20373;-62
2023/10/05 09:36:42;;;;;;;0.30;0.30;;;;;;;;;;4981499;28;20073;-61
2023/10/05 09:39:10;;;;;;;0.25;0.25;;;;;;;;;;4971342;28;20117;-60
2023/10/05 09:41:36;;;;;;;0.20;0.20;;;;;;;;;;4992435;28;20458;-61
2023/10/05 09:44:07;;;;;;;0.20;0.20;;;;;;;;;;4970288;28;20034;-60
2023/10/05 09:46:34;;;;;;;0.20;0.20;;;;;;;;;;4976709;28;20047;-63
2023/10/05 09:49:01;;;;;;;0.30;0.30;;;;;;;;;;4963913;28;20127;-61
2023/10/05 09:51:27;;;;;;;0.20;0.20;;;;;;;;;;4963538;28;20039;-60
2023/10/05 09:53:53;;;;;;;0.30;0.30;;;;;;;;;;4975059;28;20034;-60
2023/10/05 09:56:20;;;;;;;0.30;0.30;;;;;;;;;;4980367;28;20151;-60
2023/10/05 09:58:45;;;;;;;0.20;0.20;;;;;;;;;;4974838;28;20039;-60
2023/10/05 10:01:12;;;;;;;0.30;0.30;;;;;;;;;;4967877;28;20030;-62
2023/10/05 10:03:45;;;;;;;0.20;0.20;;;;;;;;;;4967627;28;20034;-61
2023/10/05 10:06:12;;;;;;;0.30;0.30;;;;;;;;;;4981024;28;20034;-60
2023/10/05 10:08:48;;;;;;;0.30;0.30;;;;;;;;;;4974539;28;20035;-62
2023/10/05 10:11:20;;;;;;;0.30;0.30;;;;;;;;;;4977273;28;20039;-64
2023/10/05 10:13:59;;;;;;;0.20;0.20;;;;;;;;;;4978002;28;20458;-61
2023/10/05 10:16:26;;;;;;;0.20;0.20;;;;;;;;;;4972170;28;20037;-61
2023/10/05 10:19:18;;;;;;;0.20;0.20;;;;;;;;;;4975184;28;20512;-60
2023/10/05 10:21:46;;;;;;;0.20;0.20;;;;;;;;;;4974436;28;20058;-60
2023/10/05 10:24:15;;;;;;;0.30;0.30;;;;;;;;;;4963437;28;20035;-61
2023/10/05 10:27:07;;;;;;;0.20;0.20;;;;;;;;;;4968810;28;20109;-62
2023/10/05 10:29:44;;;;;;;0.20;0.20;;;;;;;;;;4957001;28;20046;-61
2023/10/05 10:32:20;;;;;;;0.20;0.20;;;;;;;;;;4969048;28;20593;-61
2023/10/05 10:34:52;;;;;;;0.20;0.20;;;;;;;;;;4989377;28;20096;-63
2023/10/05 10:37:48;;;;;;;0.20;0.20;;;;;;;;;;4968859;28;20046;-61
2023/10/05 10:42:53;;;;;;;0.20;0.20;;;;;;;;;;4976032;28;20617;-62
2023/10/05 10:45:28;;;;;;;0.28;0.28;;;;;;;;;;4969790;28;20026;-65
2023/10/05 10:47:54;;;;;;;0.20;0.20;;;;;;;;;;4963211;28;20109;-61
2023/10/05 10:50:23;;;;;;;0.20;0.20;;;;;;;;;;4970785;28;20031;-62
2023/10/05 10:52:51;;;;;;;0.20;0.20;;;;;;;;;;4970134;28;20042;-62
2023/10/05 10:55:20;;;;;;;0.20;0.20;;;;;;;;;;4993687;28;20056;-63
2023/10/05 10:57:53;;;;;;;0.20;0.20;;;;;;;;;;4978582;28;20039;-61
2023/10/05 11:03:12;;;;;;;0.20;0.20;;;;;;;;;;4980359;28;20035;-63
2023/10/05 11:05:41;;;;;;;0.20;0.20;;;;;;;;;;4966143;28;20034;-61
2023/10/05 11:08:07;;;;;;;0.20;0.20;;;;;;;;;;4968587;28;20027;-60
2023/10/05 11:10:33;;;;;;;0.10;0.10;;;;;;;;;;4984201;28;20046;-60
2023/10/05 11:13:19;;;;;;;0.20;0.20;;;;;;;;;;4993324;28;20061;-61
2023/10/05 11:15:57;;;;;;;0.20;0.20;;;;;;;;;;4979805;28;20038;-65
2023/10/05 11:18:23;;;;;;;0.20;0.20;;;;;;;;;;4980742;28;20039;-61
2023/10/05 11:20:52;;;;;;;0.20;0.20;;;;;;;;;;4968256;28;20042;-61
2023/10/05 11:23:26;;;;;;;0.20;0.20;;;;;;;;;;4978561;28;20038;-59
2023/10/05 11:25:54;;;;;;;0.20;0.20;;;;;;;;;;4963007;28;20037;-60
2023/10/05 11:28:25;;;;;;;0.20;0.20;;;;;;;;;;4970765;28;20126;-62
2023/10/05 11:30:53;;;;;;;0.20;0.20;;;;;;;;;;4975116;28;20042;-61
2023/10/05 11:33:18;;;;;;;0.20;0.20;;;;;;;;;;4968495;28;20043;-61
2023/10/05 11:35:48;;;;;;;0.20;0.20;;;;;;;;;;4978347;28;20266;-63
2023/10/05 11:38:15;;;;;;;0.20;0.20;;;;;;;;;;4971955;28;20120;-60
2023/10/05 11:40:49;;;;;;;0.20;0.20;;;;;;;;;;4974948;28;20118;-61
2023/10/05 11:43:15;;;;;;;0.10;0.10;;;;;;;;;;4972885;28;20030;-61
2023/10/05 11:46:00;;;;;;;0.20;0.20;;;;;;;;;;4965193;28;20180;-60
2023/10/05 11:48:27;;;;;;;0.20;0.20;;;;;;;;;;4966611;28;20516;-60
2023/10/05 11:50:52;;;;;;;0.20;0.20;;;;;;;;;;4980332;28;20030;-62
2023/10/05 11:53:20;;;;;;;0.10;0.10;;;;;;;;;;4969419;28;20743;-60
2023/10/05 11:55:49;;;;;;;0.10;0.10;;;;;;;;;;4974522;28;20550;-61
2023/10/05 11:58:15;;;;;;;0.20;0.20;;;;;;;;;;4962976;28;20077;-60
2023/10/05 12:00:42;;;;;;;0.20;0.20;;;;;;;;;;4967809;28;20034;-62
2023/10/05 12:03:09;;;;;;;0.20;0.20;;;;;;;;;;4965739;28;20038;-60
2023/10/05 12:05:34;;;;;;;;;;;;;;;;;;4986549;28;20034;-61
2023/10/05 12:08:00;;;;;;;0.20;0.20;;;;;;;;;;4978610;28;19910;-61
2023/10/05 12:10:25;;;;;;;0.20;0.20;;;;;;;;;;4969981;28;20122;-60
2023/10/05 12:12:51;;;;;;;0.15;0.15;;;;;;;;;;4972893;28;20027;-59
2023/10/05 12:15:17;;;;;;;0.20;0.20;;;;;;;;;;4973940;28;20026;-62
2023/10/05 12:17:44;;;;;;;0.20;0.20;;;;;;;;;;4963739;28;20023;-62
2023/10/05 12:20:13;;;;;;;0.20;0.20;;;;;;;;;;4983942;28;20133;-60
2023/10/05 12:22:39;;;;;;;0.20;0.20;;;;;;;;;;4960230;28;20033;-60
2023/10/05 12:25:07;;;;;;;0.20;0.20;;;;;;;;;;4966408;28;20035;-62
2023/10/05 12:27:32;;;;;;;0.20;0.20;;;;;;;;;;4976845;28;20038;-61
2023/10/05 12:29:59;;;;;;;0.20;0.20;;;;;;;;;;4968310;28;20073;-61
2023/10/05 12:32:24;;;;;;;0.20;0.20;;;;;;;;;;4963715;28;20039;-65
2023/10/05 12:34:51;;;;;;;0.20;0.20;;;;;;;;;;4976839;28;20027;-60
2023/10/05 12:37:21;;;;;;;0.20;0.20;;;;;;;;;;4962402;28;20612;-61
2023/10/05 12:39:47;;;;;;;0.20;0.20;;;;;;;;;;4971018;28;20121;-62
2023/10/05 12:42:12;;;;;;;0.20;0.20;;;;;;;;;;4972361;28;20134;-61
2023/10/05 12:44:39;;;;;;;0.20;0.20;;;;;;;;;;4968766;28;20042;-60
2023/10/05 12:47:07;;;;;;;0.20;0.20;;;;;;;;;;4970518;28;20035;-60
2023/10/05 12:49:33;;;;;;;0.20;0.20;;;;;;;;;;4970413;28;20046;-61
2023/10/05 12:51:59;;;;;;;0.20;0.20;;;;;;;;;;4977499;28;20061;-64
2023/10/05 12:54:34;;;;;;;0.20;0.20;;;;;;;;;;4964763;28;20022;-60
2023/10/05 12:57:09;;;;;;;0.20;0.20;;;;;;;;;;4978627;28;20034;-65
2023/10/05 12:59:34;;;;;;;0.20;0.20;;;;;;;;;;4988107;28;20035;-61
2023/10/05 13:02:06;;;;;;;0.20;0.20;;;;;;;;;;4972675;28;20396;-61
2023/10/05 13:04:32;;;;;;;0.20;0.20;;;;;;;;;;4979980;28;20648;-63
2023/10/05 13:06:57;;;;;;;0.20;0.20;;;;;;;;;;4967861;28;20035;-64
2023/10/05 13:09:23;;;;;;;0.20;0.20;;;;;;;;;;4970432;28;20049;-61
2023/10/05 13:11:49;;;;;;;0.28;0.28;;;;;;;;;;4979854;28;20761;-61
2023/10/05 13:14:15;;;;;;;0.20;0.20;;;;;;;;;;4944087;28;20053;-60
2023/10/05 13:16:51;;;;;;;0.27;0.27;;;;;;;;;;4977462;28;20026;-61
2023/10/05 13:19:18;;;;;;;0.25;0.25;;;;;;;;;;4976975;28;20276;-60
2023/10/05 13:21:43;;;;;;;;;;;;;;;;;;4987108;28;20086;-61
2023/10/05 13:24:11;;;;;;;0.20;0.20;;;;;;;;;;4976007;28;19960;-60
2023/10/05 13:26:37;;;;;;;0.20;0.20;;;;;;;;;;4984755;28;20031;-61
2023/10/05 13:29:07;;;;;;;0.20;0.20;;;;;;;;;;4977703;28;20089;-60
2023/10/05 13:31:32;;;;;;;0.22;0.22;;;;;;;;;;4979829;28;20543;-64
2023/10/05 13:33:59;;;;;;;0.20;0.20;;;;;;;;;;4970639;28;20045;-62
2023/10/05 13:36:26;;;;;;;;;;;;;;;;;;4979015;28;20536;-61
2023/10/05 13:38:54;;;;;;;0.30;0.30;;;;;;;;;;4966482;28;19913;-60
2023/10/05 13:41:20;;;;;;;0.20;0.20;;;;;;;;;;4967347;28;20038;-60
2023/10/05 13:43:47;;;;;;;0.20;0.20;;;;;;;;;;4975089;28;20030;-64
2023/10/05 13:46:15;;;;;;;0.20;0.20;;;;;;;;;;4967894;28;20069;-59
2023/10/05 13:48:41;;;;;;;0.28;0.28;;;;;;;;;;4974104;28;20108;-60
2023/10/05 13:51:16;;;;;;;0.20;0.20;;;;;;;;;;4966622;28;20503;-62
2023/10/05 13:53:44;;;;;;;0.20;0.20;;;;;;;;;;4968919;28;20033;-61
2023/10/05 13:56:11;;;;;;;0.20;0.20;;;;;;;;;;4985251;28;20078;-62
2023/10/05 13:58:37;;;;;;;0.20;0.20;;;;;;;;;;4983836;28;20489;-62
2023/10/05 14:01:03;;;;;;;0.20;0.20;;;;;;;;;;4974916;28;20034;-61
2023/10/05 14:03:31;;;;;;;0.20;0.20;;;;;;;;;;4979968;28;20040;-60
2023/10/05 14:06:04;;;;;;;0.20;0.20;;;;;;;;;;4988382;28;20093;-60
2023/10/05 14:08:29;;;;;;;0.20;0.20;;;;;;;;;;4996485;28;20066;-62
2023/10/05 14:10:56;;;;;;;0.28;0.28;;;;;;;;;;4977467;28;20118;-60
2023/10/05 14:13:22;;;;;;;0.30;0.30;;;;;;;;;;4977058;28;20030;-60
2023/10/05 14:15:47;;;;;;;0.30;0.30;;;;;;;;;;4975335;28;20042;-62
2023/10/05 14:18:16;;;;;;;0.20;0.20;;;;;;;;;;4976663;28;20034;-61
2023/10/05 14:20:47;;;;;;;0.20;0.20;;;;;;;;;;4982509;28;20121;-59
2023/10/05 14:23:12;;;;;;;0.22;0.22;;;;;;;;;;4987391;28;20635;-61
2023/10/05 14:25:38;;;;;;;0.20;0.20;;;;;;;;;;4980828;28;20109;-62
2023/10/05 14:28:04;;;;;;;0.30;0.30;;;;;;;;;;4973114;28;20039;-61
2023/10/05 14:30:29;;;;;;;0.20;0.20;;;;;;;;;;4970094;28;20034;-60
2023/10/05 14:32:55;;;;;;;0.20;0.20;;;;;;;;;;4976297;28;20030;-59
2023/10/05 14:35:20;;;;;;;0.30;0.30;;;;;;;;;;5002819;28;20385;-60
2023/10/05 14:37:49;;;;;;;0.30;0.30;;;;;;;;;;4989663;28;20038;-60
2023/10/05 14:40:24;;;;;;;0.20;0.20;;;;;;;;;;4984713;28;20030;-61
2023/10/05 14:42:53;;;;;;;0.25;0.25;;;;;;;;;;4988096;28;20120;-61
2023/10/05 14:45:21;;;;;;;0.30;0.30;;;;;;;;;;4979436;28;20034;-61
2023/10/05 14:47:48;;;;;;;0.30;0.30;;;;;;;;;;4972958;28;20026;-61
2023/10/05 14:50:14;;;;;;;;;;;;;;;;;;4977582;28;20043;-61
2023/10/05 14:52:42;;;;;;;0.30;0.30;;;;;;;;;;4978305;28;20464;-60
2023/10/05 14:55:08;;;;;;;0.20;0.20;;;;;;;;;;4982758;28;20038;-61
2023/10/05 14:57:34;;;;;;;0.30;0.30;;;;;;;;;;5000699;28;20042;-63
2023/10/05 14:59:59;;;;;;;0.25;0.25;;;;;;;;;;4986510;28;20044;-61
2023/10/05 15:02:26;;;;;;;0.20;0.20;;;;;;;;;;4986400;28;20158;-60
2023/10/05 15:04:53;;;;;;;0.25;0.25;;;;;;;;;;4982936;28;20031;-60
2023/10/05 15:07:18;;;;;;;0.20;0.20;;;;;;;;;;4986523;28;20122;-63
2023/10/05 15:09:44;;;;;;;0.20;0.20;;;;;;;;;;4985479;28;20058;-61
2023/10/05 15:12:09;;;;;;;0.20;0.20;;;;;;;;;;4987177;28;20091;-60
2023/10/05 15:14:34;;;;;;;0.20;0.20;;;;;;;;;;4987992;28;20034;-62
2023/10/05 15:17:00;;;;;;;0.20;0.20;;;;;;;;;;4988451;28;20068;-60